Time;durP1;ratioP1;P1;durP2;ratioP2;P2;SDS_P1;SDS_P2;PMS_P1;PMS_P2;Temp;Humidity;BMP_temperature;BMP_pressure;BME280_temperature;BME280_humidity;BME280_pressure;Samples;Min_cycle;Max_cycle;Signal;HPM_P1;HPM_P2
2021/10/30 00:00:23;;;;;;;;;;;;;;;10.93;49.87;100508.22;4390958;32;32693;-88
2021/10/30 00:02:51;;;;;;;;;;;;;;;11.00;49.63;100514.16;4378832;32;33438;-87
2021/10/30 00:05:19;;;;;;;;;;;;;;;10.57;50.67;100518.22;4378722;32;32927;-88
2021/10/30 00:07:46;;;;;;;;;;;;;;;10.80;50.09;100514.84;4391089;32;33289;-88
2021/10/30 00:10:14;;;;;;;;;;;;;;;11.01;49.77;100500.91;4366181;32;32842;-88
2021/10/30 00:12:42;;;;;;;;;;;;;;;10.73;50.19;100508.03;4378688;32;32121;-88
2021/10/30 00:15:11;;;;;;;;;;;;;;;10.62;50.58;100511.00;4378598;32;33208;-88
2021/10/30 00:17:39;;;;;;;;;;;;;;;10.80;50.21;100508.69;4378597;32;33961;-88
2021/10/30 00:20:06;;;;;;;;;;;;;;;10.78;50.25;100482.34;4377787;32;32552;-88
2021/10/30 00:22:34;;;;;;;;;;;;;;;10.47;51.10;100493.88;4378300;32;32054;-88
2021/10/30 00:25:02;;;;;;;;;;;;;;;10.18;51.85;100491.28;4378273;32;33357;-89
2021/10/30 00:27:29;;;;;;;;;;;;;;;10.78;50.42;100492.91;4365847;32;33338;-89
2021/10/30 00:29:57;;;;;;;;;;;;;;;10.38;51.24;100488.03;4367275;32;32835;-89
2021/10/30 00:32:25;;;;;;;;;;;;;;;10.57;50.81;100490.94;4380255;32;32008;-90
2021/10/30 00:34:52;;;;;;;;;;;;;;;10.39;51.26;100484.47;4380545;32;33720;-90
2021/10/30 00:37:20;;;;;;;;;;;;;;;10.40;51.49;100489.72;4380265;32;33517;-90
2021/10/30 00:39:48;;;;;;;;;;;;;;;10.54;51.05;100484.00;4367925;32;33071;-90
2021/10/30 00:42:15;;;;;;;;;;;;;;;10.77;50.48;100477.94;4380399;32;32487;-90
2021/10/30 00:44:44;;;;;;;;;;;;;;;10.32;51.54;100483.81;4368226;32;32685;-89
2021/10/30 00:47:14;;;;;;;;;;;;;;;10.28;51.82;100487.47;4367634;32;33264;-90
2021/10/30 00:49:44;;;;;;;;;;;;;;;10.23;52.00;100484.09;4380662;32;32791;-89
2021/10/30 00:52:13;;;;;;;;;;;;;;;10.59;51.17;100484.72;4380657;32;31800;-90
2021/10/30 00:54:40;;;;;;;;;;;;;;;10.78;50.58;100479.69;4380523;32;32681;-89
2021/10/30 00:57:08;;;;;;;;;;;;;;;10.59;51.18;100486.50;4367885;32;32968;-90
2021/10/30 00:59:36;;;;;;;;;;;;;;;10.21;52.26;100480.63;4367753;32;33757;-90
2021/10/30 01:02:04;;;;;;;;;;;;;;;10.59;51.44;100475.94;4380045;32;32101;-90
2021/10/30 01:04:32;;;;;;;;;;;;;;;10.58;51.41;100474.19;4380476;32;34061;-90
2021/10/30 01:07:00;;;;;;;;;;;;;;;10.80;50.83;100454.06;4380228;32;32697;-88
2021/10/30 01:09:27;;;;;;;;;;;;;;;10.62;51.23;100455.56;4378278;32;34203;-88
2021/10/30 01:11:54;;;;;;;;;;;;;;;10.59;51.65;100446.87;4379790;32;32216;-91
2021/10/30 01:14:35;;;;;;;;;;;;;;;10.65;51.21;100449.31;4367206;32;33054;-89
2021/10/30 01:17:04;;;;;;;;;;;;;;;10.81;51.11;100445.22;4378812;32;33155;-90
2021/10/30 01:19:32;;;;;;;;;;;;;;;10.42;52.16;100448.28;4378627;32;33176;-89
2021/10/30 01:22:00;;;;;;;;;;;;;;;10.55;51.88;100450.53;4378402;32;32316;-89
2021/10/30 01:24:27;;;;;;;;;;;;;;;10.65;51.70;100438.75;4378818;32;32962;-89
2021/10/30 01:26:55;;;;;;;;;;;;;;;10.48;52.10;100440.16;4379336;32;33362;-90
2021/10/30 01:29:23;;;;;;;;;;;;;;;10.74;51.34;100443.72;4380632;32;33101;-91
2021/10/30 01:33:02;;;;;;;;;;;;;;;10.83;51.35;100443.41;4370261;32;33975;-89
2021/10/30 01:35:31;;;;;;;;;;;;;;;10.89;51.43;100432.63;4349626;32;32675;-89
2021/10/30 01:37:59;;;;;;;;;;;;;;;11.16;50.80;100420.22;4362368;32;33427;-89
2021/10/30 01:40:27;;;;;;;;;;;;;;;10.97;51.27;100419.16;4374304;32;34171;-89
2021/10/30 01:42:55;;;;;;;;;;;;;;;11.00;51.33;100419.87;4374727;32;31622;-88
2021/10/30 01:45:23;;;;;;;;;;;;;;;11.33;50.63;100411.66;4361768;32;33113;-88
2021/10/30 01:47:50;;;;;;;;;;;;;;;11.52;50.12;100412.69;4361721;32;33056;-88
2021/10/30 01:50:18;;;;;;;;;;;;;;;11.37;50.34;100410.63;4377379;32;33693;-88
2021/10/30 01:52:45;;;;;;;;;;;;;;;11.00;51.42;100406.66;4365118;32;32278;-88
2021/10/30 01:55:14;;;;;;;;;;;;;;;11.05;51.28;100403.88;4377516;32;33191;-88
2021/10/30 01:57:41;;;;;;;;;;;;;;;11.02;51.63;100404.00;4390225;32;33296;-88
2021/10/30 02:00:09;;;;;;;;;;;;;;;11.13;51.31;100403.59;4377551;32;32838;-88
2021/10/30 02:06:42;;;;;;;;;;;;;;;11.01;51.89;100400.50;4380070;32;34910;-93
2021/10/30 02:13:41;;;;;;;;;;;;;;;11.28;51.26;100409.19;4384344;32;35131;-90
2021/10/30 02:16:33;;;;;;;;;;;;;;;11.39;50.94;100408.78;4355622;32;32236;-90
2021/10/30 02:19:12;;;;;;;;;;;;;;;11.59;50.54;100417.78;4383747;32;33918;-89
2021/10/30 02:21:40;;;;;;;;;;;;;;;11.76;49.84;100413.53;4382400;32;33453;-89
2021/10/30 02:24:11;;;;;;;;;;;;;;;11.56;50.35;100418.72;4370304;32;32569;-89
2021/10/30 02:26:38;;;;;;;;;;;;;;;11.57;50.40;100414.31;4380359;32;32152;-88
2021/10/30 02:29:07;;;;;;;;;;;;;;;11.47;50.74;100419.06;4389440;32;33162;-89
2021/10/30 02:31:35;;;;;;;;;;;;;;;11.71;50.10;100417.28;4390923;32;32689;-89
2021/10/30 02:34:25;;;;;;;;;;;;;;;11.51;50.41;100412.75;4378509;32;34300;-89
2021/10/30 02:36:53;;;;;;;;;;;;;;;11.32;50.94;100412.56;4391956;32;32153;-89
2021/10/30 02:39:21;;;;;;;;;;;;;;;11.40;50.84;100418.47;4389630;32;33928;-89
2021/10/30 02:41:49;;;;;;;;;;;;;;;11.75;49.70;100418.91;4381274;32;33338;-90
2021/10/30 02:44:18;;;;;;;;;;;;;;;11.55;50.46;100414.38;4387226;32;32650;-85
2021/10/30 02:46:45;;;;;;;;;;;;;;;11.44;50.51;100414.78;4367271;32;32560;-87
2021/10/30 02:49:13;;;;;;;;;;;;;;;11.56;50.43;100415.22;4387061;32;33804;-87
2021/10/30 02:51:41;;;;;;;;;;;;;;;11.74;49.85;100411.88;4381572;32;34684;-86
2021/10/30 02:54:08;;;;;;;;;;;;;;;11.49;50.49;100418.12;4396951;32;34104;-88
2021/10/30 02:56:35;;;;;;;;;;;;;;;11.31;50.95;100413.50;4396433;32;32325;-86
2021/10/30 02:59:03;;;;;;;;;;;;;;;11.24;51.10;100417.28;4408777;32;33334;-86
2021/10/30 03:01:30;;;;;;;;;;;;;;;11.40;50.85;100421.09;4396406;32;33099;-86
2021/10/30 03:03:57;;;;;;;;;;;;;;;11.49;50.49;100419.91;4368120;32;34337;-88
2021/10/30 03:06:26;;;;;;;;;;;;;;;11.59;50.30;100421.28;4380477;32;32173;-88
2021/10/30 03:08:53;;;;;;;;;;;;;;;11.65;50.09;100422.81;4390926;32;32881;-88
2021/10/30 03:11:21;;;;;;;;;;;;;;;11.70;49.90;100426.16;4379808;32;33337;-89
2021/10/30 03:13:48;;;;;;;;;;;;;;;11.58;50.29;100430.09;4378961;32;33298;-89
2021/10/30 03:16:16;;;;;;;;;;;;;;;11.53;50.28;100424.97;4379259;32;32079;-88
2021/10/30 03:18:44;;;;;;;;;;;;;;;11.46;50.51;100430.59;4379054;32;32732;-89
2021/10/30 03:21:12;;;;;;;;;;;;;;;11.16;51.48;100430.78;4366477;32;33100;-89
2021/10/30 03:23:40;;;;;;;;;;;;;;;11.13;51.65;100430.03;4366489;32;32778;-91
2021/10/30 03:26:31;;;;;;;;;;;;;;;11.62;50.19;100428.22;4364175;32;34119;-92
2021/10/30 03:29:10;;;;;;;;;;;;;;;11.63;50.04;100427.28;4337276;33;33218;-92
2021/10/30 03:32:01;;;;;;;;;;;;;;;11.46;50.45;100428.78;4394029;32;34432;-92
2021/10/30 03:34:40;;;;;;;;;;;;;;;11.49;50.36;100420.75;4358681;32;32691;-92
2021/10/30 03:37:34;;;;;;;;;;;;;;;11.45;50.69;100423.56;4362115;32;32496;-90
2021/10/30 03:40:21;;;;;;;;;;;;;;;11.27;51.22;100428.62;4348825;32;33202;-89
2021/10/30 03:42:49;;;;;;;;;;;;;;;11.25;51.42;100422.53;4368175;32;33430;-89
2021/10/30 03:45:17;;;;;;;;;;;;;;;11.48;50.83;100415.50;4335629;32;799574;-89
2021/10/30 03:47:44;;;;;;;;;;;;;;;11.35;51.18;100425.69;4362688;32;33525;-88
2021/10/30 03:50:12;;;;;;;;;;;;;;;11.42;51.15;100429.81;4363626;32;33295;-92
2021/10/30 03:52:51;;;;;;;;;;;;;;;10.95;52.63;100432.41;4364833;32;32978;-91
2021/10/30 03:59:23;;;;;;;;;;;;;;;11.22;52.25;100417.34;4369515;32;34415;-91
2021/10/30 04:01:56;;;;;;;;;;;;;;;10.57;54.37;100431.06;4379834;32;33426;-90
2021/10/30 04:08:35;;;;;;;;;;;;;;;10.49;54.70;100431.34;4367076;32;36044;-91
2021/10/30 04:11:04;;;;;;;;;;;;;;;10.65;54.36;100425.56;4378644;32;32483;-90
2021/10/30 04:13:32;;;;;;;;;;;;;;;10.45;55.14;100426.22;4364810;32;32786;-89
2021/10/30 04:15:59;;;;;;;;;;;;;;;10.70;54.33;100423.63;4372889;32;33074;-89
2021/10/30 04:18:27;;;;;;;;;;;;;;;10.65;54.34;100423.75;4373207;32;33150;-88
2021/10/30 04:20:54;;;;;;;;;;;;;;;10.93;53.58;100406.97;4360628;32;32099;-89
2021/10/30 04:23:22;;;;;;;;;;;;;;;10.56;54.66;100412.66;4375780;32;33622;-91
2021/10/30 04:25:49;;;;;;;;;;;;;;;10.56;54.78;100413.50;4338685;32;33467;-88
2021/10/30 04:28:17;;;;;;;;;;;;;;;10.84;54.06;100409.94;4362907;32;33283;-87
2021/10/30 04:30:45;;;;;;;;;;;;;;;10.76;54.36;100413.69;4363264;32;33518;-91
2021/10/30 04:37:20;;;;;;;;;;;;;;;10.50;55.32;100409.31;4365743;32;35329;-93
2021/10/30 04:40:11;;;;;;;;;;;;;;;10.43;55.72;100407.78;4375075;32;32542;-90
2021/10/30 04:42:39;;;;;;;;;;;;;;;10.51;55.66;100403.09;4370820;32;32207;-87
2021/10/30 04:45:06;;;;;;;;;;;;;;;10.90;54.51;100397.34;4395818;32;33961;-88
2021/10/30 04:47:33;;;;;;;;;;;;;;;10.84;54.72;100404.66;4383092;32;34641;-87
2021/10/30 04:50:01;;;;;;;;;;;;;;;11.28;53.21;100398.59;4370746;32;32853;-87
2021/10/30 04:52:28;;;;;;;;;;;;;;;10.72;54.61;100408.56;4370781;32;32250;-87
2021/10/30 04:54:56;;;;;;;;;;;;;;;11.09;53.42;100405.47;4382993;32;34802;-87
2021/10/30 04:57:23;;;;;;;;;;;;;;;10.87;53.99;100402.75;4383094;32;32615;-87
2021/10/30 04:59:50;;;;;;;;;;;;;;;10.79;54.12;100399.53;4382940;32;32654;-87
2021/10/30 05:02:18;;;;;;;;;;;;;;;10.75;54.58;100408.47;4370509;32;32389;-87
2021/10/30 05:04:46;;;;;;;;;;;;;;;10.73;54.59;100405.88;4383344;32;33754;-87
2021/10/30 05:07:13;;;;;;;;;;;;;;;10.86;54.14;100395.72;4382694;32;33480;-87
2021/10/30 05:09:40;;;;;;;;;;;;;;;10.60;54.90;100403.72;4383097;32;34504;-87
2021/10/30 05:12:08;;;;;;;;;;;;;;;10.67;54.92;100399.94;4383065;32;32474;-87
2021/10/30 05:14:35;;;;;;;;;;;;;;;10.80;54.24;100406.53;4370980;32;33050;-87
2021/10/30 05:17:03;;;;;;;;;;;;;;;10.67;54.83;100402.56;4382857;32;33329;-86
2021/10/30 05:19:30;;;;;;;;;;;;;;;10.49;55.59;100418.16;4383538;32;33978;-86
2021/10/30 05:21:58;;;;;;;;;;;;;;;10.10;56.59;100408.84;4383066;32;34022;-86
2021/10/30 05:24:25;;;;;;;;;;;;;;;10.36;56.49;100411.53;4381368;32;33059;-90
2021/10/30 05:26:52;;;;;;;;;;;;;;;10.56;55.89;100404.72;4385628;32;33089;-90
2021/10/30 05:29:20;;;;;;;;;;;;;;;10.62;56.00;100408.00;4395836;32;33054;-91
2021/10/30 05:32:07;;;;;;;;;;;;;;;10.55;56.30;100405.66;4387404;32;32176;-90
2021/10/30 05:34:36;;;;;;;;;;;;;;;10.35;57.17;100408.94;4396705;32;32964;-90
2021/10/30 05:37:06;;;;;;;;;;;;;;;10.67;56.34;100406.06;4394040;32;33611;-90
2021/10/30 05:39:39;;;;;;;;;;;;;;;10.50;56.99;100401.38;4380840;32;33292;-88
2021/10/30 05:42:08;;;;;;;;;;;;;;;10.38;57.33;100404.44;4393385;32;32552;-88
2021/10/30 05:44:36;;;;;;;;;;;;;;;10.60;56.83;100409.84;4390562;32;33960;-93
2021/10/30 05:47:05;;;;;;;;;;;;;;;10.44;57.60;100408.62;4368631;32;34220;-88
2021/10/30 05:49:34;;;;;;;;;;;;;;;10.48;57.51;100404.97;4372457;32;33032;-87
2021/10/30 05:52:02;;;;;;;;;;;;;;;10.43;57.76;100413.06;4367378;32;33312;-86
2021/10/30 05:54:29;;;;;;;;;;;;;;;10.54;57.58;100411.81;4392619;32;32900;-86
2021/10/30 05:56:57;;;;;;;;;;;;;;;10.12;58.74;100425.50;4392417;32;33155;-86
2021/10/30 05:59:25;;;;;;;;;;;;;;;10.45;58.07;100416.53;4392405;32;33643;-87
2021/10/30 06:01:52;;;;;;;;;;;;;;;10.39;58.44;100410.56;4379881;32;32184;-87
2021/10/30 06:04:20;;;;;;;;;;;;;;;10.49;58.31;100417.25;4379479;32;33260;-87
2021/10/30 06:06:47;;;;;;;;;;;;;;;10.47;58.22;100419.09;4379962;32;33157;-87
2021/10/30 06:09:15;;;;;;;;;;;;;;;10.75;57.44;100406.69;4392218;32;32712;-87
2021/10/30 06:11:43;;;;;;;;;;;;;;;10.78;57.64;100418.94;4389629;32;33229;-87
2021/10/30 06:14:11;;;;;;;;;;;;;;;10.37;59.02;100418.53;4377920;32;33410;-86
2021/10/30 06:16:38;;;;;;;;;;;;;;;10.45;58.86;100421.81;4364886;32;34366;-85
2021/10/30 06:19:06;;;;;;;;;;;;;;;10.89;57.64;100422.06;4378149;32;33935;-86
2021/10/30 06:21:33;;;;;;;;;;;;;;;11.10;56.88;100420.41;4389834;32;33412;-86
2021/10/30 06:24:00;;;;;;;;;;;;;;;10.82;57.61;100430.22;4377167;32;33265;-86
2021/10/30 06:26:28;;;;;;;;;;;;;;;10.86;57.93;100427.44;4374422;32;33471;-86
2021/10/30 06:28:56;;;;;;;;;;;;;;;11.08;57.12;100430.19;4379671;32;33334;-86
2021/10/30 06:31:27;;;;;;;;;;;;;;;10.88;58.04;100433.53;4404244;32;33335;-85
2021/10/30 06:33:55;;;;;;;;;;;;;;;10.64;58.68;100440.53;4384862;32;33028;-86
2021/10/30 06:36:22;;;;;;;;;;;;;;;10.90;58.00;100434.34;4386085;32;34107;-85
2021/10/30 06:38:50;;;;;;;;;;;;;;;11.22;56.92;100435.84;4381353;32;34111;-86
2021/10/30 06:41:38;;;;;;;;;;;;;;;11.34;56.53;100445.09;4379347;32;33189;-86
2021/10/30 06:44:05;;;;;;;;;;;;;;;11.16;56.80;100453.72;4378675;32;33432;-86
2021/10/30 06:46:33;;;;;;;;;;;;;;;11.36;56.34;100453.84;4379421;32;34090;-92
2021/10/30 06:49:14;;;;;;;;;;;;;;;11.32;56.65;100454.88;4378698;32;33695;-84
2021/10/30 06:51:41;;;;;;;;;;;;;;;11.06;57.55;100458.44;4387346;32;32229;-85
2021/10/30 06:54:10;;;;;;;;;;;;;;;11.75;55.60;100455.94;4366009;32;33343;-88
2021/10/30 06:56:38;;;;;;;;;;;;;;;11.52;56.19;100455.00;4373676;32;34203;-89
2021/10/30 06:59:06;;;;;;;;;;;;;;;11.17;58.26;100451.00;4388393;32;33764;-88
2021/10/30 07:01:35;;;;;;;;;;;;;;;11.15;57.51;100458.13;4376972;32;32469;-89
2021/10/30 07:04:03;;;;;;;;;;;;;;;11.52;56.49;100462.94;4368724;32;34178;-88
2021/10/30 07:06:31;;;;;;;;;;;;;;;11.58;56.62;100463.63;4366913;32;33039;-89
2021/10/30 07:08:59;;;;;;;;;;;;;;;11.87;55.61;100463.44;4395578;32;32472;-89
2021/10/30 07:11:27;;;;;;;;;;;;;;;11.90;55.84;100462.44;4377722;32;32351;-88
2021/10/30 07:13:54;;;;;;;;;;;;;;;11.85;56.23;100461.75;4376280;32;33940;-91
2021/10/30 07:16:38;;;;;;;;;;;;;;;12.20;55.19;100457.72;4385602;32;34230;-89
2021/10/30 07:19:06;;;;;;;;;;;;;;;12.07;55.30;100461.81;4378299;32;33114;-88
2021/10/30 07:21:33;;;;;;;;;;;;;;;12.30;54.94;100467.06;4377913;32;32672;-88
2021/10/30 07:24:02;;;;;;;;;;;;;;;12.36;54.46;100469.44;4362286;32;32908;-88
2021/10/30 07:26:29;;;;;;;;;;;;;;;12.19;55.08;100475.41;4371333;32;33149;-88
2021/10/30 07:28:57;;;;;;;;;;;;;;;12.40;54.84;100462.25;4379651;32;32900;-89
2021/10/30 07:31:24;;;;;;;;;;;;;;;12.74;53.60;100461.72;4379782;32;33445;-89
2021/10/30 07:33:52;;;;;;;;;;;;;;;12.47;54.31;100467.22;4380005;32;34648;-89
2021/10/30 07:36:20;;;;;;;;;;;;;;;12.88;53.36;100467.28;4376999;32;33449;-89
2021/10/30 07:38:48;;;;;;;;;;;;;;;13.17;52.73;100473.12;4388436;32;32676;-89
2021/10/30 07:41:15;;;;;;;;;;;;;;;12.59;53.88;100465.00;4392838;32;32104;-89
2021/10/30 07:43:42;;;;;;;;;;;;;;;13.16;52.93;100476.72;4391356;32;34438;-93
2021/10/30 07:46:23;;;;;;;;;;;;;;;12.67;54.68;100494.66;4377566;32;33353;-89
2021/10/30 07:48:51;;;;;;;;;;;;;;;12.94;53.89;100485.56;4373670;32;32930;-87
2021/10/30 07:51:36;;;;;;;;;;;;;;;13.37;52.62;100488.19;4389453;32;33814;-90
2021/10/30 07:54:04;;;;;;;;;;;;;;;13.07;52.79;100492.09;4399090;32;34353;-87
2021/10/30 07:56:32;;;;;;;;;;;;;;;13.11;53.04;100476.91;4392497;32;32909;-89
2021/10/30 07:59:02;;;;;;;;;;;;;;;13.38;53.11;100477.50;4382990;32;34485;-89
2021/10/30 08:01:29;;;;;;;;;;;;;;;13.47;52.16;100481.53;4395278;32;32235;-90
2021/10/30 08:04:01;;;;;;;;;;;;;;;13.41;53.06;100482.69;4380837;32;33255;-90
2021/10/30 08:06:28;;;;;;;;;;;;;;;13.30;53.23;100474.34;4393851;32;34315;-90
2021/10/30 08:08:56;;;;;;;;;;;;;;;13.64;52.48;100467.53;4393795;32;34037;-89
2021/10/30 08:11:24;;;;;;;;;;;;;;;13.71;51.98;100466.28;4405543;32;31924;-87
2021/10/30 08:13:51;;;;;;;;;;;;;;;13.95;51.70;100467.81;4392544;32;32920;-89
2021/10/30 08:16:18;;;;;;;;;;;;;;;14.16;51.14;100467.75;4381770;32;32821;-88
2021/10/30 08:18:46;;;;;;;;;;;;;;;14.16;50.77;100471.25;4398307;32;33943;-88
2021/10/30 08:21:13;;;;;;;;;;;;;;;14.06;51.34;100470.84;4407278;32;31926;-88
2021/10/30 08:23:41;;;;;;;;;;;;;;;14.28;50.78;100464.47;4391596;32;32876;-89
2021/10/30 08:26:08;;;;;;;;;;;;;;;14.33;50.52;100463.31;4369095;32;32734;-88
2021/10/30 08:28:36;;;;;;;;;;;;;;;14.23;50.96;100467.34;4385837;32;33270;-88
2021/10/30 08:31:03;;;;;;;;;;;;;;;13.87;51.71;100459.38;4395303;32;32561;-89
2021/10/30 08:33:31;;;;;;;;;;;;;;;14.11;51.63;100457.34;4393122;32;33299;-89
2021/10/30 08:35:58;;;;;;;;;;;;;;;14.72;50.56;100454.37;4395498;32;34984;-89
2021/10/30 08:38:26;;;;;;;;;;;;;;;14.62;50.00;100452.22;4385240;32;33378;-89
2021/10/30 08:40:55;;;;;;;;;;;;;;;14.49;50.60;100447.53;4392800;32;32119;-88
2021/10/30 08:43:24;;;;;;;;;;;;;;;15.19;49.45;100436.87;4390275;32;32953;-88
2021/10/30 08:45:51;;;;;;;;;;;;;;;15.14;49.40;100444.25;4379771;32;33150;-89
2021/10/30 08:48:20;;;;;;;;;;;;;;;14.86;51.30;100448.34;4364045;32;34254;-89
2021/10/30 08:50:48;;;;;;;;;;;;;;;15.44;50.06;100436.47;4375645;32;32957;-87
2021/10/30 08:53:15;;;;;;;;;;;;;;;15.24;49.37;100430.41;4356995;32;32897;-88
2021/10/30 08:55:43;;;;;;;;;;;;;;;15.73;48.43;100434.91;4355476;32;33027;-88
2021/10/30 08:58:11;;;;;;;;;;;;;;;15.30;49.60;100435.38;4365435;32;33364;-88
2021/10/30 09:00:50;;;;;;;;;;;;;;;15.72;49.24;100434.06;4364857;32;32661;-88
2021/10/30 09:06:33;;;;;;;;;;;;;;;16.01;47.74;100434.25;4375928;32;33576;-88
2021/10/30 09:09:11;;;;;;;;;;;;;;;15.86;47.83;100433.28;4375910;32;34498;-88
2021/10/30 09:11:43;;;;;;;;;;;;;;;15.85;48.32;100428.88;4362543;32;32980;-88
2021/10/30 09:14:21;;;;;;;;;;;;;;;16.19;47.64;100429.66;4375719;32;34376;-89
2021/10/30 09:17:07;;;;;;;;;;;;;;;16.20;47.83;100428.72;4376796;32;33256;-89
2021/10/30 09:19:35;;;;;;;;;;;;;;;16.17;47.44;100426.22;4376864;32;34749;-88
2021/10/30 09:22:05;;;;;;;;;;;;;;;16.70;46.12;100430.25;4374649;32;32765;-88
2021/10/30 09:24:53;;;;;;;;;;;;;;;16.70;45.91;100425.78;4366104;32;33169;-89
2021/10/30 09:27:21;;;;;;;;;;;;;;;16.68;46.42;100421.50;4372424;32;34200;-89
2021/10/30 09:29:55;;;;;;;;;;;;;;;17.29;46.29;100416.03;4375823;32;32974;-89
2021/10/30 09:32:25;;;;;;;;;;;;;;;16.91;46.07;100425.50;4373899;32;33496;-88
2021/10/30 09:34:53;;;;;;;;;;;;;;;16.75;47.19;100412.19;4376755;32;32601;-89
2021/10/30 09:37:21;;;;;;;;;;;;;;;17.09;47.30;100411.03;4364466;32;33397;-89
2021/10/30 09:39:50;;;;;;;;;;;;;;;17.43;44.84;100412.50;4376985;32;34404;-89
2021/10/30 09:42:30;;;;;;;;;;;;;;;17.64;44.44;100397.78;4377046;32;33003;-89
2021/10/30 09:45:07;;;;;;;;;;;;;;;17.84;43.69;100406.37;4379277;32;34401;-89
2021/10/30 09:47:44;;;;;;;;;;;;;;;17.48;44.42;100397.03;4388946;32;33132;-88
2021/10/30 09:50:33;;;;;;;;;;;;;;;17.84;43.80;100398.34;4394949;32;30936;-89
2021/10/30 09:53:02;;;;;;;;;;;;;;;17.75;43.65;100398.94;4389679;32;33128;-89
2021/10/30 09:55:30;;;;;;;;;;;;;;;17.70;44.98;100393.00;4401725;32;34254;-89
2021/10/30 09:57:58;;;;;;;;;;;;;;;17.98;43.81;100390.28;4396766;32;33035;-89
2021/10/30 10:00:25;;;;;;;;;;;;;;;18.35;42.71;100391.41;4401589;32;34366;-89
2021/10/30 10:02:54;;;;;;;;;;;;;;;18.05;42.83;100391.62;4388904;32;32590;-88
2021/10/30 10:05:22;;;;;;;;;;;;;;;17.98;42.85;100394.78;4401795;32;34258;-89
2021/10/30 10:07:49;;;;;;;;;;;;;;;18.40;42.63;100385.75;4402132;32;33503;-89
2021/10/30 10:10:17;;;;;;;;;;;;;;;18.59;42.07;100386.22;4389877;32;33857;-89
2021/10/30 10:12:44;;;;;;;;;;;;;;;18.65;42.52;100385.81;4402122;32;32957;-88
2021/10/30 10:15:15;;;;;;;;;;;;;;;18.32;41.51;100382.72;4401650;32;32828;-88
2021/10/30 10:17:43;;;;;;;;;;;;;;;18.58;42.63;100376.50;4389415;32;34323;-89
2021/10/30 10:20:11;;;;;;;;;;;;;;;19.05;40.90;100379.59;4402382;32;33246;-88
2021/10/30 10:22:38;;;;;;;;;;;;;;;18.87;40.80;100373.69;4389725;32;33420;-88
2021/10/30 10:25:25;;;;;;;;;;;;;;;18.95;41.29;100381.19;4396962;32;32949;-89
2021/10/30 10:27:53;;;;;;;;;;;;;;;18.83;40.70;100373.03;4387664;32;33233;-88
2021/10/30 10:30:21;;;;;;;;;;;;;;;18.87;40.68;100360.31;4389123;32;32604;-88
2021/10/30 10:32:48;;;;;;;;;;;;;;;18.83;41.15;100364.16;4395451;32;34332;-88
2021/10/30 10:35:17;;;;;;;;;;;;;;;19.03;40.04;100360.94;4388902;32;33053;-89
2021/10/30 10:37:48;;;;;;;;;;;;;;;19.28;40.40;100359.25;4401854;32;34508;-89
2021/10/30 10:40:32;;;;;;;;;;;;;;;19.51;40.34;100353.06;4401173;32;33093;-88
2021/10/30 10:43:00;;;;;;;;;;;;;;;19.54;39.38;100347.50;4401987;32;32581;-89
2021/10/30 10:45:48;;;;;;;;;;;;;;;19.06;39.93;100347.34;4401625;32;33888;-89
2021/10/30 10:48:21;;;;;;;;;;;;;;;19.31;40.34;100330.41;4401759;32;32707;-89
2021/10/30 10:50:49;;;;;;;;;;;;;;;19.79;41.99;100340.38;4401887;32;32932;-89
2021/10/30 10:53:19;;;;;;;;;;;;;;;20.30;38.16;100318.69;4402155;32;32916;-89
2021/10/30 10:55:51;;;;;;;;;;;;;;;20.41;36.99;100327.66;4401554;32;33786;-88
2021/10/30 10:58:18;;;;;;;;;;;;;;;20.13;37.79;100328.87;4389443;32;33174;-89
2021/10/30 11:01:05;;;;;;;;;;;;;;;20.17;37.82;100314.25;4401864;32;33434;-89
2021/10/30 11:03:40;;;;;;;;;;;;;;;19.98;39.06;100313.94;4401717;32;32548;-88
2021/10/30 11:06:08;;;;;;;;;;;;;;;19.98;37.62;100308.56;4403223;32;33197;-89
2021/10/30 11:08:36;;;;;;;;;;;;;;;19.85;39.28;100310.47;4403735;32;33610;-89
2021/10/30 11:11:07;;;;;;;;;;;;;;;20.24;37.49;100303.09;4404114;32;33433;-89
2021/10/30 11:13:40;;;;;;;;;;;;;;;20.26;36.92;100301.13;4403429;32;32122;-89
2021/10/30 11:16:08;;;;;;;;;;;;;;;20.65;37.63;100292.75;4379502;32;34057;-89
2021/10/30 11:21:14;;;;;;;;;;;;;;;20.33;36.44;100305.06;4403785;32;33444;-88
2021/10/30 11:24:06;;;;;;;;;;;;;;;20.42;36.80;100302.53;4378876;32;34006;-87
2021/10/30 11:26:33;;;;;;;;;;;;;;;20.33;36.58;100297.03;4391113;32;34090;-88
2021/10/30 11:29:02;;;;;;;;;;;;;;;20.28;36.81;100288.47;4390965;32;33691;-88
2021/10/30 11:31:30;;;;;;;;;;;;;;;20.54;35.16;100290.03;4391148;32;32918;-88
2021/10/30 11:34:02;;;;;;;;;;;;;;;20.53;35.79;100277.59;4403335;32;33100;-88
2021/10/30 11:36:36;;;;;;;;;;;;;;;20.59;35.72;100279.78;4391316;32;33910;-89
2021/10/30 11:39:05;;;;;;;;;;;;;;;20.64;35.78;100277.59;4404175;32;33856;-90
2021/10/30 11:41:48;;;;;;;;;;;;;;;20.48;35.50;100263.69;4389237;32;34220;-89
2021/10/30 11:44:19;;;;;;;;;;;;;;;20.79;34.69;100267.47;4368116;32;31800;-91
2021/10/30 11:47:02;;;;;;;;;;;;;;;20.58;35.29;100267.34;4391632;32;32897;-89
2021/10/30 11:49:33;;;;;;;;;;;;;;;20.88;34.94;100263.22;4354748;32;33015;-90
2021/10/30 11:52:10;;;;;;;;;;;;;;;20.70;35.92;100262.88;4367092;32;33444;-90
2021/10/30 11:54:54;;;;;;;;;;;;;;;20.83;35.71;100258.22;4348867;32;33095;-89
2021/10/30 11:58:02;;;;;;;;;;;;;;;20.84;34.93;100264.44;4351739;32;34116;-88
2021/10/30 12:00:48;;;;;;;;;;;;;;;20.46;35.18;100254.84;4350399;32;33326;-90
2021/10/30 12:03:39;;;;;;;;;;;;;;;20.55;34.99;100246.12;4350592;32;32874;-88
2021/10/30 12:06:14;;;;;;;;;;;;;;;20.43;35.04;100263.16;4368066;32;32167;-90
2021/10/30 12:09:24;;;;;;;;;;;;;;;20.08;35.20;100261.34;4402188;32;33317;-89
2021/10/30 12:12:04;;;;;;;;;;;;;;;20.57;34.48;100257.59;4403749;32;34264;-89
2021/10/30 12:14:34;;;;;;;;;;;;;;;20.38;35.04;100268.03;4404308;32;32846;-90
2021/10/30 12:17:23;;;;;;;;;;;;;;;19.91;35.79;100261.75;4388547;32;32086;-89
2021/10/30 12:20:20;;;;;;;;;;;;;;;20.34;34.88;100253.97;4371688;32;34674;-90
2021/10/30 12:23:10;;;;;;;;;;;;;;;20.18;35.65;100246.28;4364418;32;32923;-91
2021/10/30 12:26:13;;;;;;;;;;;;;;;20.50;35.37;100245.62;4414129;32;32772;-91
2021/10/30 12:28:48;;;;;;;;;;;;;;;20.62;34.70;100250.03;4383470;32;33311;-90
2021/10/30 12:31:50;;;;;;;;;;;;;;;20.41;35.45;100244.50;4354211;32;32676;-91
2021/10/30 12:35:43;;;;;;;;;;;;;;;20.40;35.10;100247.28;4355309;32;34896;-90
2021/10/30 12:38:32;;;;;;;;;;;;;;;19.78;36.15;100247.56;4345726;33;33304;-90
2021/10/30 12:41:13;;;;;;;;;;;;;;;20.09;35.89;100241.63;4347952;33;31588;-91
2021/10/30 12:43:57;;;;;;;;;;;;;;;19.98;35.86;100244.22;4361819;32;32537;-89
2021/10/30 12:46:50;;;;;;;;;;;;;;;19.63;36.58;100228.13;4360099;32;33111;-90
2021/10/30 12:49:25;;;;;;;;;;;;;;;19.46;36.68;100234.69;4347952;32;33855;-88
2021/10/30 12:52:01;;;;;;;;;;;;;;;19.19;37.67;100234.91;4337468;32;32633;-88
2021/10/30 12:54:29;;;;;;;;;;;;;;;19.42;37.19;100225.22;4376473;32;34141;-88
2021/10/30 12:56:56;;;;;;;;;;;;;;;19.12;37.30;100234.50;4376062;32;32709;-89
2021/10/30 12:59:33;;;;;;;;;;;;;;;19.67;36.90;100233.16;4375511;32;33910;-88
2021/10/30 13:02:01;;;;;;;;;;;;;;;20.13;36.07;100226.13;4374130;32;32484;-87
2021/10/30 13:04:29;;;;;;;;;;;;;;;19.72;36.63;100229.28;4370937;32;33639;-90
2021/10/30 13:06:58;;;;;;;;;;;;;;;20.10;36.45;100221.88;4372683;32;34181;-86
2021/10/30 13:09:25;;;;;;;;;;;;;;;19.95;36.54;100212.31;4371847;32;33033;-86
2021/10/30 13:11:53;;;;;;;;;;;;;;;19.80;36.76;100226.87;4373462;32;33035;-87
2021/10/30 13:14:40;;;;;;;;;;;;;;;19.45;37.51;100230.31;4372557;32;33355;-87
2021/10/30 13:17:07;;;;;;;;;;;;;;;20.03;36.40;100225.97;4368464;32;33131;-87
2021/10/30 13:19:35;;;;;;;;;;;;;;;19.83;36.66;100229.31;4372209;32;32961;-87
2021/10/30 13:22:03;;;;;;;;;;;;;;;19.56;37.16;100226.84;4359753;32;32920;-88
2021/10/30 13:24:30;;;;;;;;;;;;;;;19.60;36.95;100223.84;4364038;32;33060;-87